createdAt,value
2019-05-03T00:00:18.921Z,94493.34
2019-05-03T00:03:07.824Z,94490.86
2019-05-03T00:05:49.465Z,94489.38
2019-05-03T00:08:21.714Z,94480.84
2019-05-03T00:10:51.853Z,94483.63
2019-05-03T00:13:21.974Z,94483.30
2019-05-03T00:16:21.820Z,94480.48
2019-05-03T00:18:52.718Z,94481.65
2019-05-03T00:21:22.699Z,94471.43
2019-05-03T00:23:52.650Z,94475.66
2019-05-03T00:26:22.705Z,94470.45
2019-05-03T00:28:52.894Z,94469.16
2019-05-03T00:31:22.852Z,94468.16
2019-05-03T00:33:56.820Z,94461.84
2019-05-03T00:36:48.954Z,94462.95
2019-05-03T00:39:29.949Z,94460.81
2019-05-03T00:42:00.027Z,94463.59
2019-05-03T00:44:31.697Z,94458.18
2019-05-03T00:47:02.295Z,94457.70
2019-05-03T00:49:32.357Z,94463.53
2019-05-03T00:52:02.468Z,94462.14
2019-05-03T00:54:32.462Z,94455.45
2019-05-03T00:57:02.794Z,94452.41
2019-05-03T00:59:32.782Z,94452.55
2019-05-03T01:02:02.858Z,94454.16
2019-05-03T01:04:33.087Z,94449.73
2019-05-03T01:07:02.939Z,94451.13
2019-05-03T01:09:32.984Z,94439.63
2019-05-03T01:12:02.910Z,94448.44
2019-05-03T01:14:33.397Z,94449.70
2019-05-03T01:17:03.386Z,94437.55
2019-05-03T01:19:33.949Z,94445.11
2019-05-03T01:22:03.849Z,94443.50
2019-05-03T01:24:33.842Z,94439.69
2019-05-03T01:27:04.401Z,94443.36
2019-05-03T01:29:34.447Z,94437.13
2019-05-03T01:32:04.446Z,94436.20
2019-05-03T01:34:34.385Z,94434.39
2019-05-03T01:37:04.484Z,94440.61
2019-05-03T01:39:34.475Z,94442.39
2019-05-03T01:42:04.745Z,94442.69
2019-05-03T01:44:34.761Z,94444.68
2019-05-03T01:47:07.446Z,94440.48
2019-05-03T01:49:52.039Z,94434.98
2019-05-03T01:52:28.736Z,94443.62
2019-05-03T01:54:58.844Z,94444.34
2019-05-03T01:57:28.849Z,94434.75
2019-05-03T01:59:58.871Z,94435.31
2019-05-03T02:02:56.874Z,94438.78
2019-05-03T02:05:44.523Z,94436.39
2019-05-03T02:08:14.665Z,94443.33
2019-05-03T02:10:44.736Z,94442.80
2019-05-03T02:13:14.663Z,94442.86
2019-05-03T02:15:44.714Z,94430.06
2019-05-03T02:18:15.217Z,94434.63
2019-05-03T02:20:45.132Z,94442.22
2019-05-03T02:23:15.106Z,94432.36
2019-05-03T02:25:55.585Z,94439.23
2019-05-03T02:28:16.842Z,94439.47
2019-05-03T02:30:46.750Z,94428.28
2019-05-03T02:33:16.660Z,94433.84
2019-05-03T02:35:46.561Z,94441.98
2019-05-03T02:38:16.546Z,94434.25
2019-05-03T02:40:46.559Z,94432.56
2019-05-03T02:43:41.716Z,94435.62
2019-05-03T02:46:19.959Z,94434.71
2019-05-03T02:49:12.042Z,94432.56
2019-05-03T02:51:41.897Z,94431.38
2019-05-03T02:54:11.918Z,94426.63
2019-05-03T02:56:42.888Z,94428.87
2019-05-03T02:59:15.473Z,94431.88
2019-05-03T03:01:46.521Z,94437.78
2019-05-03T03:04:17.367Z,94433.12
2019-05-03T03:06:49.797Z,94432.45
2019-05-03T03:09:21.578Z,94434.78
2019-05-03T03:11:55.795Z,94436.97
2019-05-03T03:14:27.694Z,94434.82
2019-05-03T03:17:00.591Z,94428.52
2019-05-03T03:19:30.985Z,94429.13
2019-05-03T03:22:06.344Z,94426.06
2019-05-03T03:24:40.069Z,94428.25
2019-05-03T03:27:16.324Z,94428.91
2019-05-03T03:29:49.554Z,94428.87
2019-05-03T03:32:31.596Z,94418.45
2019-05-03T03:35:12.542Z,94426.75
2019-05-03T03:37:41.765Z,94433.05
2019-05-03T03:40:13.130Z,94434.74
2019-05-03T03:42:44.962Z,94430.52
2019-05-03T03:45:16.718Z,94434.63
2019-05-03T03:47:49.752Z,94432.00
2019-05-03T03:50:19.704Z,94440.89
2019-05-03T03:52:51.234Z,94443.23
2019-05-03T03:55:26.166Z,94436.81
2019-05-03T03:57:55.698Z,94450.79
2019-05-03T04:00:26.078Z,94452.75
2019-05-03T04:02:56.146Z,94458.44
2019-05-03T04:05:26.533Z,94458.80
2019-05-03T04:07:56.644Z,94457.05
2019-05-03T04:10:27.238Z,94462.70
2019-05-03T04:12:58.069Z,94461.28
2019-05-03T04:15:45.712Z,94466.19
2019-05-03T04:18:36.322Z,94469.56
2019-05-03T04:21:07.571Z,94471.72
2019-05-03T04:23:38.034Z,94469.80
2019-05-03T04:26:08.187Z,94470.75
2019-05-03T04:28:39.048Z,94475.81
2019-05-03T04:31:09.062Z,94479.16
2019-05-03T04:33:39.096Z,94478.27
2019-05-03T04:36:09.184Z,94479.40
2019-05-03T04:38:39.184Z,94477.20
2019-05-03T04:41:09.200Z,94476.55
2019-05-03T04:43:39.047Z,94491.21
2019-05-03T04:46:17.534Z,94489.81
2019-05-03T04:48:47.527Z,94480.84
2019-05-03T04:51:17.541Z,94481.98
2019-05-03T04:53:55.982Z,94484.94
2019-05-03T04:56:26.227Z,94485.66
2019-05-03T04:58:56.317Z,94492.34
2019-05-03T05:01:26.304Z,94490.13
2019-05-03T05:03:56.144Z,94491.72
2019-05-03T05:06:26.106Z,94492.28
2019-05-03T05:08:55.939Z,94498.47
2019-05-03T05:11:26.493Z,94505.44
2019-05-03T05:13:56.503Z,94504.03
2019-05-03T05:16:26.397Z,94512.31
2019-05-03T05:19:00.457Z,94513.85
2019-05-03T05:21:35.519Z,94512.55
2019-05-03T05:24:06.393Z,94517.52
2019-05-03T05:26:55.380Z,94511.14
2019-05-03T05:29:27.628Z,94517.58
2019-05-03T05:31:57.849Z,94512.66
2019-05-03T05:34:28.043Z,94517.16
2019-05-03T05:36:57.889Z,94514.91
2019-05-03T05:39:27.791Z,94517.66
2019-05-03T05:41:57.784Z,94519.83
2019-05-03T05:44:27.640Z,94518.98
2019-05-03T05:47:15.363Z,94527.89
2019-05-03T05:49:54.780Z,94522.66
2019-05-03T05:52:24.715Z,94525.17
2019-05-03T05:55:22.563Z,94527.28
2019-05-03T05:58:07.535Z,94535.77
2019-05-03T06:00:48.608Z,94528.73
2019-05-03T06:03:18.546Z,94533.44
2019-05-03T06:05:48.502Z,94532.30
2019-05-03T06:08:40.149Z,94542.66
2019-05-03T06:11:29.081Z,94533.44
2019-05-03T06:14:04.926Z,94542.53
2019-05-03T06:16:45.174Z,94544.94
2019-05-03T06:19:34.524Z,94547.34
2019-05-03T06:22:15.370Z,94553.52
2019-05-03T06:24:51.127Z,94556.61
2019-05-03T06:27:29.325Z,94551.28
2019-05-03T06:30:04.683Z,94554.03
2019-05-03T06:32:37.305Z,94553.66
2019-05-03T06:35:07.568Z,94552.52
2019-05-03T06:37:42.769Z,94554.91
2019-05-03T06:40:14.792Z,94550.11
2019-05-03T06:42:53.328Z,94554.38
2019-05-03T06:45:16.520Z,94552.67
2019-05-03T06:47:50.005Z,94549.82
2019-05-03T06:50:19.457Z,94547.26
2019-05-03T06:52:49.879Z,94557.97
2019-05-03T06:55:19.750Z,94558.13
2019-05-03T06:57:49.908Z,94554.68
2019-05-03T07:00:48.429Z,94551.45
2019-05-03T07:03:37.447Z,94549.91
2019-05-03T07:06:33.426Z,94554.88
2019-05-03T07:09:14.428Z,94550.18
2019-05-03T07:11:45.154Z,94553.17
2019-05-03T07:14:15.632Z,94549.41
2019-05-03T07:16:45.623Z,94553.73
2019-05-03T07:19:15.637Z,94562.98
2019-05-03T07:21:45.631Z,94558.30
2019-05-03T07:24:15.482Z,94558.52
2019-05-03T07:26:45.471Z,94562.87
2019-05-03T07:29:15.481Z,94566.02
2019-05-03T07:31:45.425Z,94561.73
2019-05-03T07:34:15.703Z,94564.93
2019-05-03T07:36:45.813Z,94574.43
2019-05-03T07:39:15.872Z,94565.09
2019-05-03T07:41:46.299Z,94572.26
2019-05-03T07:44:16.135Z,94567.02
2019-05-03T07:46:46.159Z,94573.64
2019-05-03T07:49:16.275Z,94572.58
2019-05-03T07:51:46.402Z,94575.93
2019-05-03T07:54:16.371Z,94575.34
2019-05-03T07:56:54.789Z,94580.20
2019-05-03T07:59:25.078Z,94580.50
2019-05-03T08:01:56.954Z,94575.73
2019-05-03T08:04:27.224Z,94581.11
2019-05-03T08:06:57.244Z,94586.18
2019-05-03T08:09:27.110Z,94581.49
2019-05-03T08:11:57.097Z,94574.84
2019-05-03T08:14:27.018Z,94575.61
2019-05-03T08:16:58.183Z,94580.69
2019-05-03T08:19:28.060Z,94579.28
2019-05-03T08:21:58.022Z,94571.71
2019-05-03T08:24:27.975Z,94580.24
2019-05-03T08:26:58.065Z,94572.38
2019-05-03T08:29:28.016Z,94577.36
2019-05-03T08:32:15.990Z,94579.19
2019-05-03T08:35:08.028Z,94577.69
2019-05-03T08:37:45.342Z,94575.86
2019-05-03T08:40:15.818Z,94590.47
2019-05-03T08:42:45.771Z,94578.93
2019-05-03T08:45:15.810Z,94577.39
2019-05-03T08:47:45.810Z,94584.61
2019-05-03T08:50:21.194Z,94589.20
2019-05-03T08:52:47.653Z,94581.61
2019-05-03T08:55:17.647Z,94577.24
2019-05-03T08:57:47.571Z,94578.25
2019-05-03T09:00:19.250Z,94588.69
2019-05-03T09:02:49.185Z,94582.83
2019-05-03T09:05:19.261Z,94583.34
2019-05-03T09:07:50.770Z,94581.75
2019-05-03T09:10:26.699Z,94576.06
2019-05-03T09:13:25.125Z,94592.45
2019-05-03T09:15:55.542Z,94587.70
2019-05-03T09:18:25.902Z,94595.05
2019-05-03T09:20:56.014Z,94592.53
2019-05-03T09:23:26.201Z,94603.02
2019-05-03T09:25:56.084Z,94597.83
2019-05-03T09:28:29.065Z,94599.25
2019-05-03T09:30:57.711Z,94600.88
2019-05-03T09:33:28.708Z,94604.76
2019-05-03T09:35:58.576Z,94602.61
2019-05-03T09:38:28.604Z,94609.44
2019-05-03T09:40:58.672Z,94613.89
2019-05-03T09:43:28.602Z,94617.16
2019-05-03T09:45:58.460Z,94609.92
2019-05-03T09:48:28.452Z,94611.75
2019-05-03T09:50:58.426Z,94619.23
2019-05-03T09:53:30.846Z,94616.62
2019-05-03T09:56:00.895Z,94621.00
2019-05-03T09:58:30.880Z,94614.63
2019-05-03T10:01:00.827Z,94616.17
2019-05-03T10:03:30.926Z,94621.18
2019-05-03T10:06:00.973Z,94616.13
2019-05-03T10:08:31.002Z,94615.10
2019-05-03T10:11:10.326Z,94627.63
2019-05-03T10:13:42.175Z,94624.15
2019-05-03T10:16:12.364Z,94635.33
2019-05-03T10:18:45.662Z,94636.48
2019-05-03T10:21:15.361Z,94635.11
2019-05-03T10:23:45.522Z,94632.11
2019-05-03T10:26:15.499Z,94631.72
2019-05-03T10:28:45.526Z,94628.71
2019-05-03T10:31:15.534Z,94622.86
2019-05-03T10:33:53.449Z,94629.69
2019-05-03T10:36:24.947Z,94628.04
2019-05-03T10:38:56.206Z,94627.05
2019-05-03T10:41:26.688Z,94623.06
2019-05-03T10:43:56.775Z,94629.34
2019-05-03T10:46:26.775Z,94620.23
2019-05-03T10:48:56.640Z,94619.31
2019-05-03T10:51:28.487Z,94624.08
2019-05-03T10:53:59.989Z,94619.23
2019-05-03T10:56:47.450Z,94619.77
2019-05-03T10:59:17.965Z,94620.30
2019-05-03T11:02:16.560Z,94615.28
2019-05-03T11:04:46.590Z,94616.89
2019-05-03T11:07:16.594Z,94613.73
2019-05-03T11:09:51.830Z,94620.36
2019-05-03T11:12:18.197Z,94620.86
2019-05-03T11:14:48.176Z,94614.64
2019-05-03T11:17:18.201Z,94611.75
2019-05-03T11:19:48.051Z,94609.86
2019-05-03T11:22:18.065Z,94621.52
2019-05-03T11:24:48.059Z,94619.56
2019-05-03T11:27:25.619Z,94612.79
2019-05-03T11:29:55.741Z,94615.03
2019-05-03T11:32:50.751Z,94608.43
2019-05-03T11:35:26.735Z,94605.20
2019-05-03T11:38:05.319Z,94609.84
2019-05-03T11:40:34.717Z,94616.55
2019-05-03T11:43:04.794Z,94609.12
2019-05-03T11:45:35.378Z,94608.65
2019-05-03T11:48:05.935Z,94614.30
2019-05-03T11:50:35.963Z,94611.09
2019-05-03T11:53:05.972Z,94608.25
2019-05-03T11:55:36.002Z,94613.26
2019-05-03T11:58:18.526Z,94615.75
2019-05-03T12:00:51.339Z,94612.42
2019-05-03T12:03:26.894Z,94610.41
2019-05-03T12:05:58.637Z,94611.86
2019-05-03T12:08:28.581Z,94612.95
2019-05-03T12:11:01.566Z,94605.46
2019-05-03T12:13:31.276Z,94607.08
2019-05-03T12:16:14.575Z,94601.27
2019-05-03T12:18:47.973Z,94604.05
2019-05-03T12:21:08.346Z,94595.63
2019-05-03T12:23:38.360Z,94597.61
2019-05-03T12:26:12.909Z,94596.59
2019-05-03T12:28:40.357Z,94604.05
2019-05-03T12:31:25.817Z,94599.56
2019-05-03T12:33:41.911Z,94602.14
2019-05-03T12:36:11.754Z,94598.12
2019-05-03T12:38:41.714Z,94588.77
2019-05-03T12:41:11.626Z,94593.42
2019-05-03T12:43:41.554Z,94595.11
2019-05-03T12:46:11.478Z,94599.13
2019-05-03T12:48:41.405Z,94598.16
2019-05-03T12:51:11.671Z,94585.14
2019-05-03T12:53:42.062Z,94589.70
2019-05-03T12:56:13.790Z,94595.79
2019-05-03T12:58:58.949Z,94598.13
2019-05-03T13:01:55.821Z,94598.27
2019-05-03T13:04:29.157Z,94593.89
2019-05-03T13:07:05.604Z,94599.81
2019-05-03T13:09:35.913Z,94595.74
2019-05-03T13:12:07.184Z,94590.67
2019-05-03T13:14:37.069Z,94598.05
2019-05-03T13:17:11.101Z,94596.02
2019-05-03T13:19:39.791Z,94594.88
2019-05-03T13:22:09.743Z,94582.81
2019-05-03T13:24:39.635Z,94587.23
2019-05-03T13:27:09.578Z,94583.09
2019-05-03T13:29:39.495Z,94577.55
2019-05-03T13:32:09.453Z,94581.09
2019-05-03T13:34:41.363Z,94580.53
2019-05-03T13:37:11.072Z,94571.38
2019-05-03T13:39:41.033Z,94570.62
2019-05-03T13:42:11.078Z,94576.73
2019-05-03T13:44:41.124Z,94570.08
2019-05-03T13:47:11.136Z,94561.05
2019-05-03T13:49:41.188Z,94565.65
2019-05-03T13:52:11.220Z,94561.11
2019-05-03T13:54:41.193Z,94560.83
2019-05-03T13:57:11.195Z,94560.25
2019-05-03T13:59:41.036Z,94553.14
2019-05-03T14:02:18.289Z,94557.97
2019-05-03T14:04:52.302Z,94565.81
2019-05-03T14:07:15.289Z,94557.28
2019-05-03T14:09:45.421Z,94557.16
2019-05-03T14:12:15.616Z,94554.86
2019-05-03T14:14:56.554Z,94543.44
2019-05-03T14:17:28.943Z,94550.88
2019-05-03T14:20:11.196Z,94551.97
2019-05-03T14:22:42.704Z,94558.87
2019-05-03T14:25:12.636Z,94557.59
2019-05-03T14:27:42.692Z,94561.88
2019-05-03T14:30:14.589Z,94556.17
2019-05-03T14:32:45.283Z,94559.23
2019-05-03T14:35:16.323Z,94561.75
2019-05-03T14:37:46.595Z,94560.72
2019-05-03T14:40:16.850Z,94556.98
2019-05-03T14:42:46.870Z,94559.46
2019-05-03T14:45:16.938Z,94554.62
2019-05-03T14:47:47.212Z,94569.72
2019-05-03T14:50:18.489Z,94559.58
2019-05-03T14:52:48.381Z,94567.48
2019-05-03T14:55:28.371Z,94579.13
2019-05-03T14:58:09.934Z,94570.33
2019-05-03T15:00:46.999Z,94567.61
2019-05-03T15:03:20.126Z,94565.22
2019-05-03T15:05:50.080Z,94560.27
2019-05-03T15:08:20.111Z,94565.91
2019-05-03T15:10:51.112Z,94559.00
2019-05-03T15:13:25.043Z,94565.38
2019-05-03T15:15:55.193Z,94559.63
2019-05-03T15:18:25.691Z,94554.48
2019-05-03T15:20:55.735Z,94547.86
2019-05-03T15:23:25.672Z,94542.47
2019-05-03T15:25:55.551Z,94546.80
2019-05-03T15:28:25.375Z,94547.30
2019-05-03T15:30:56.436Z,94547.53
2019-05-03T15:33:26.347Z,94551.59
2019-05-03T15:35:56.265Z,94550.97
2019-05-03T15:38:27.225Z,94544.33
2019-05-03T15:40:57.063Z,94542.61
2019-05-03T15:43:45.940Z,94543.20
2019-05-03T15:46:34.943Z,94539.43
2019-05-03T15:49:04.942Z,94545.76
2019-05-03T15:51:34.948Z,94544.13
2019-05-03T15:54:05.041Z,94548.70
2019-05-03T15:56:35.091Z,94544.13
2019-05-03T15:59:05.052Z,94538.91
2019-05-03T16:01:35.455Z,94547.92
2019-05-03T16:04:05.534Z,94536.56
2019-05-03T16:06:35.461Z,94545.91
2019-05-03T16:09:06.871Z,94543.13
2019-05-03T16:11:37.027Z,94546.75
2019-05-03T16:14:07.109Z,94543.34
2019-05-03T16:16:36.933Z,94543.13
2019-05-03T16:19:06.885Z,94537.77
2019-05-03T16:21:36.916Z,94539.93
2019-05-03T16:24:06.822Z,94538.91
2019-05-03T16:26:38.951Z,94538.98
2019-05-03T16:29:12.312Z,94538.13
2019-05-03T16:31:42.160Z,94531.58
2019-05-03T16:34:12.072Z,94537.50
2019-05-03T16:36:41.949Z,94537.78
2019-05-03T16:39:12.951Z,94538.40
2019-05-03T16:41:44.800Z,94540.49
2019-05-03T16:44:16.490Z,94527.45
2019-05-03T16:46:47.655Z,94529.57
2019-05-03T16:49:17.472Z,94527.44
2019-05-03T16:51:47.516Z,94524.58
2019-05-03T16:54:17.407Z,94526.00
2019-05-03T16:56:47.899Z,94524.44
2019-05-03T16:59:20.584Z,94525.52
2019-05-03T17:01:50.557Z,94526.52
2019-05-03T17:04:42.404Z,94527.23
2019-05-03T17:07:27.326Z,94529.72
2019-05-03T17:10:07.774Z,94523.77
2019-05-03T17:12:37.824Z,94525.34
2019-05-03T17:15:08.363Z,94524.91
2019-05-03T17:17:38.347Z,94525.20
2019-05-03T17:20:08.696Z,94523.80
2019-05-03T17:22:38.800Z,94519.88
2019-05-03T17:25:09.178Z,94526.77
2019-05-03T17:27:39.713Z,94527.53
2019-05-03T17:30:10.090Z,94527.41
2019-05-03T17:32:40.122Z,94524.02
2019-05-03T17:35:10.333Z,94532.09
2019-05-03T17:37:40.199Z,94533.44
2019-05-03T17:40:23.981Z,94536.85
2019-05-03T17:43:06.837Z,94539.06
2019-05-03T17:45:40.257Z,94536.22
2019-05-03T17:48:10.320Z,94543.77
2019-05-03T17:50:40.291Z,94550.97
2019-05-03T17:53:41.378Z,94549.24
2019-05-03T17:56:35.043Z,94553.09
2019-05-03T17:59:08.972Z,94552.04
2019-05-03T18:01:57.442Z,94555.31
2019-05-03T18:04:40.050Z,94551.96
2019-05-03T18:07:35.174Z,94550.10
2019-05-03T18:10:15.214Z,94554.50
2019-05-03T18:12:45.429Z,94552.23
2019-05-03T18:15:15.847Z,94558.05
2019-05-03T18:17:46.033Z,94548.86
2019-05-03T18:20:16.051Z,94548.23
2019-05-03T18:22:46.025Z,94550.92
2019-05-03T18:25:15.955Z,94556.27
2019-05-03T18:27:45.924Z,94560.03
2019-05-03T18:30:15.988Z,94564.46
2019-05-03T18:32:46.031Z,94563.47
2019-05-03T18:35:16.006Z,94566.89
2019-05-03T18:37:47.593Z,94564.98
2019-05-03T18:40:17.588Z,94570.38
2019-05-03T18:42:51.975Z,94567.36
2019-05-03T18:45:29.441Z,94564.53
2019-05-03T18:47:59.377Z,94570.05
2019-05-03T18:50:29.396Z,94579.19
2019-05-03T18:52:59.350Z,94578.48
2019-05-03T18:55:30.279Z,94579.35
2019-05-03T18:58:00.244Z,94586.63
2019-05-03T19:00:31.359Z,94576.66
2019-05-03T19:03:01.237Z,94579.14
2019-05-03T19:05:34.925Z,94580.84
2019-05-03T19:08:19.662Z,94586.55
2019-05-03T19:10:56.003Z,94595.11
2019-05-03T19:13:32.943Z,94595.56
2019-05-03T19:16:09.860Z,94591.02
2019-05-03T19:18:39.992Z,94592.30
2019-05-03T19:21:09.907Z,94592.59
2019-05-03T19:23:39.887Z,94604.42
2019-05-03T19:26:10.892Z,94609.06
2019-05-03T19:28:40.882Z,94607.08
2019-05-03T19:31:12.641Z,94603.31
2019-05-03T19:33:42.771Z,94603.72
2019-05-03T19:36:17.502Z,94599.95
2019-05-03T19:38:50.094Z,94595.94
2019-05-03T19:41:20.068Z,94598.21
2019-05-03T19:43:51.300Z,94601.48
2019-05-03T19:46:21.407Z,94602.69
2019-05-03T19:48:51.317Z,94608.72
2019-05-03T19:51:21.289Z,94611.12
2019-05-03T19:53:55.078Z,94607.84
2019-05-03T19:56:25.830Z,94609.32
2019-05-03T19:59:01.891Z,94609.88
2019-05-03T20:01:59.802Z,94609.06
2019-05-03T20:04:58.501Z,94610.47
2019-05-03T20:07:51.737Z,94609.30
2019-05-03T20:10:35.144Z,94610.91
2019-05-03T20:13:05.179Z,94607.53
2019-05-03T20:15:35.307Z,94599.63
2019-05-03T20:18:05.487Z,94603.22
2019-05-03T20:20:35.536Z,94601.94
2019-05-03T20:23:05.531Z,94602.27
2019-05-03T20:25:35.399Z,94596.17
2019-05-03T20:28:05.623Z,94594.02
2019-05-03T20:30:35.929Z,94597.45
2019-05-03T20:33:09.334Z,94597.34
2019-05-03T20:35:39.387Z,94595.30
2019-05-03T20:38:09.303Z,94603.16
2019-05-03T20:40:39.241Z,94594.83
2019-05-03T20:43:27.196Z,94597.02
2019-05-03T20:46:10.710Z,94594.08
2019-05-03T20:48:42.359Z,94595.86
2019-05-03T20:51:12.435Z,94593.88
2019-05-03T20:53:42.400Z,94593.58
2019-05-03T20:56:12.349Z,94593.23
2019-05-03T20:58:44.513Z,94585.55
2019-05-03T21:01:15.308Z,94590.78
2019-05-03T21:03:45.543Z,94594.40
2019-05-03T21:06:15.563Z,94593.58
2019-05-03T21:08:52.929Z,94595.48
2019-05-03T21:11:17.193Z,94592.88
2019-05-03T21:13:47.190Z,94589.83
2019-05-03T21:16:26.339Z,94594.54
2019-05-03T21:19:04.981Z,94595.33
2019-05-03T21:21:41.599Z,94596.95
2019-05-03T21:24:16.748Z,94596.16
2019-05-03T21:26:46.786Z,94586.62
2019-05-03T21:29:16.777Z,94599.08
2019-05-03T21:31:46.845Z,94587.40
2019-05-03T21:34:16.867Z,94595.59
2019-05-03T21:36:46.849Z,94590.98
2019-05-03T21:39:16.768Z,94592.86
2019-05-03T21:41:46.669Z,94602.95
2019-05-03T21:44:32.841Z,94599.29
2019-05-03T21:47:27.950Z,94594.77
2019-05-03T21:49:58.878Z,94599.08
2019-05-03T21:52:28.791Z,94592.47
2019-05-03T21:55:00.859Z,94588.52
2019-05-03T21:57:30.773Z,94593.70
2019-05-03T22:00:00.780Z,94602.75
2019-05-03T22:02:32.463Z,94593.00
2019-05-03T22:05:02.409Z,94588.05
2019-05-03T22:07:35.032Z,94598.59
2019-05-03T22:10:05.757Z,94590.52
2019-05-03T22:12:35.657Z,94582.91
2019-05-03T22:15:22.293Z,94584.25
2019-05-03T22:18:05.255Z,94580.73
2019-05-03T22:20:51.997Z,94579.30
2019-05-03T22:23:39.623Z,94573.80
2019-05-03T22:26:09.548Z,94572.75
2019-05-03T22:28:39.383Z,94563.52
2019-05-03T22:31:09.309Z,94564.02
2019-05-03T22:33:39.306Z,94555.01
2019-05-03T22:36:10.316Z,94553.42
2019-05-03T22:38:40.215Z,94557.77
2019-05-03T22:41:10.040Z,94553.95
2019-05-03T22:43:39.996Z,94560.84
2019-05-03T22:46:09.900Z,94551.42
2019-05-03T22:48:39.816Z,94557.51
2019-05-03T22:51:09.656Z,94554.51
2019-05-03T22:53:39.673Z,94555.22
2019-05-03T22:56:09.492Z,94550.78
2019-05-03T22:58:39.340Z,94545.78
2019-05-03T23:01:10.294Z,94539.75
2019-05-03T23:03:44.832Z,94534.91
2019-05-03T23:06:22.426Z,94541.42
2019-05-03T23:08:46.684Z,94541.19
2019-05-03T23:11:16.601Z,94536.36
2019-05-03T23:14:01.554Z,94537.33
2019-05-03T23:16:35.652Z,94531.55
2019-05-03T23:19:05.727Z,94529.08
2019-05-03T23:21:41.399Z,94530.91
2019-05-03T23:24:11.224Z,94524.09
2019-05-03T23:26:41.131Z,94517.23
2019-05-03T23:29:11.029Z,94514.52
2019-05-03T23:31:41.015Z,94511.97
2019-05-03T23:34:10.990Z,94511.38
2019-05-03T23:36:40.836Z,94498.91
2019-05-03T23:39:11.723Z,94500.42
2019-05-03T23:41:41.627Z,94490.49
2019-05-03T23:44:12.505Z,94489.00
2019-05-03T23:46:49.275Z,94482.86
2019-05-03T23:49:19.201Z,94478.23
2019-05-03T23:51:51.016Z,94483.37
2019-05-03T23:54:20.983Z,94471.31
2019-05-03T23:56:50.967Z,94466.78
2019-05-03T23:59:21.971Z,94472.97
